sensor_id;sensor_type;location;lat;lon;timestamp;temperature;humidity
67890;DHT22;54685;52.082;5.426;2022-08-19T00:01:35;18.40;99.90
67890;DHT22;54685;52.082;5.426;2022-08-19T00:04:06;18.40;99.90
67890;DHT22;54685;52.082;5.426;2022-08-19T00:06:35;18.40;99.90
67890;DHT22;54685;52.082;5.426;2022-08-19T00:09:05;18.30;99.90
67890;DHT22;54685;52.082;5.426;2022-08-19T00:11:33;18.30;99.90
67890;DHT22;54685;52.082;5.426;2022-08-19T00:14:02;18.30;99.90
67890;DHT22;54685;52.082;5.426;2022-08-19T00:16:29;18.30;99.90
67890;DHT22;54685;52.082;5.426;2022-08-19T00:18:56;18.30;99.90
67890;DHT22;54685;52.082;5.426;2022-08-19T00:21:24;18.30;99.90
67890;DHT22;54685;52.082;5.426;2022-08-19T00:23:52;18.20;99.90
67890;DHT22;54685;52.082;5.426;2022-08-19T00:26:19;18.20;99.90
67890;DHT22;54685;52.082;5.426;2022-08-19T00:28:46;18.20;99.90
67890;DHT22;54685;52.082;5.426;2022-08-19T00:31:13;18.10;99.90
67890;DHT22;54685;52.082;5.426;2022-08-19T00:33:40;18.10;99.90
67890;DHT22;54685;52.082;5.426;2022-08-19T00:36:08;18.00;99.90
67890;DHT22;54685;52.082;5.426;2022-08-19T00:38:37;18.10;99.90
67890;DHT22;54685;52.082;5.426;2022-08-19T00:41:14;18.00;99.90
67890;DHT22;54685;52.082;5.426;2022-08-19T00:43:41;18.00;99.90
67890;DHT22;54685;52.082;5.426;2022-08-19T00:46:09;18.00;99.90
67890;DHT22;54685;52.082;5.426;2022-08-19T00:48:36;17.90;99.90
67890;DHT22;54685;52.082;5.426;2022-08-19T00:51:04;17.90;99.90
67890;DHT22;54685;52.082;5.426;2022-08-19T00:53:32;17.90;99.90
67890;DHT22;54685;52.082;5.426;2022-08-19T00:56:01;17.90;99.90
67890;DHT22;54685;52.082;5.426;2022-08-19T00:58:32;17.80;99.90
67890;DHT22;54685;52.082;5.426;2022-08-19T01:01:01;17.80;99.90
67890;DHT22;54685;52.082;5.426;2022-08-19T01:03:28;17.80;99.90
67890;DHT22;54685;52.082;5.426;2022-08-19T01:06:15;17.80;99.90
67890;DHT22;54685;52.082;5.426;2022-08-19T01:08:46;17.80;99.90
67890;DHT22;54685;52.082;5.426;2022-08-19T01:11:16;17.70;99.90
67890;DHT22;54685;52.082;5.426;2022-08-19T01:13:44;17.70;99.90
67890;DHT22;54685;52.082;5.426;2022-08-19T01:16:17;17.70;99.90
67890;DHT22;54685;52.082;5.426;2022-08-19T01:18:45;17.70;99.90
67890;DHT22;54685;52.082;5.426;2022-08-19T01:21:31;17.70;99.90
67890;DHT22;54685;52.082;5.426;2022-08-19T01:23:59;17.70;99.90
67890;DHT22;54685;52.082;5.426;2022-08-19T01:26:26;17.60;99.90
67890;DHT22;54685;52.082;5.426;2022-08-19T01:28:56;17.60;99.90
67890;DHT22;54685;52.082;5.426;2022-08-19T01:31:28;17.60;99.90
67890;DHT22;54685;52.082;5.426;2022-08-19T01:34:00;17.60;99.90
67890;DHT22;54685;52.082;5.426;2022-08-19T01:36:32;17.60;99.90
67890;DHT22;54685;52.082;5.426;2022-08-19T01:39:04;17.60;99.90
67890;DHT22;54685;52.082;5.426;2022-08-19T01:41:31;17.60;99.90
67890;DHT22;54685;52.082;5.426;2022-08-19T01:43:58;17.70;99.90
67890;DHT22;54685;52.082;5.426;2022-08-19T01:46:44;17.70;99.90
67890;DHT22;54685;52.082;5.426;2022-08-19T01:49:11;17.80;99.90
67890;DHT22;54685;52.082;5.426;2022-08-19T01:51:38;17.80;99.90
67890;DHT22;54685;52.082;5.426;2022-08-19T01:54:07;17.80;99.90
67890;DHT22;54685;52.082;5.426;2022-08-19T01:56:34;17.80;99.90
67890;DHT22;54685;52.082;5.426;2022-08-19T01:59:05;17.80;99.90
67890;DHT22;54685;52.082;5.426;2022-08-19T02:01:34;17.80;99.90
67890;DHT22;54685;52.082;5.426;2022-08-19T02:04:02;17.80;99.90
67890;DHT22;54685;52.082;5.426;2022-08-19T02:06:29;17.80;99.90
67890;DHT22;54685;52.082;5.426;2022-08-19T02:08:56;17.60;99.90
67890;DHT22;54685;52.082;5.426;2022-08-19T02:11:31;17.60;99.90
67890;DHT22;54685;52.082;5.426;2022-08-19T02:14:03;17.50;99.90
67890;DHT22;54685;52.082;5.426;2022-08-19T02:16:30;17.40;99.90
67890;DHT22;54685;52.082;5.426;2022-08-19T02:18:57;17.40;99.90
67890;DHT22;54685;52.082;5.426;2022-08-19T02:21:27;17.30;99.90
67890;DHT22;54685;52.082;5.426;2022-08-19T02:23:55;17.30;99.90
67890;DHT22;54685;52.082;5.426;2022-08-19T02:26:22;17.20;99.90
67890;DHT22;54685;52.082;5.426;2022-08-19T02:28:50;17.30;99.90
67890;DHT22;54685;52.082;5.426;2022-08-19T02:31:19;17.40;99.90
67890;DHT22;54685;52.082;5.426;2022-08-19T02:33:47;17.40;99.90
67890;DHT22;54685;52.082;5.426;2022-08-19T02:36:16;17.40;99.90
67890;DHT22;54685;52.082;5.426;2022-08-19T02:38:47;17.40;99.90
67890;DHT22;54685;52.082;5.426;2022-08-19T02:41:29;17.40;99.90
67890;DHT22;54685;52.082;5.426;2022-08-19T02:43:59;17.30;99.90
67890;DHT22;54685;52.082;5.426;2022-08-19T02:46:48;17.30;99.90
67890;DHT22;54685;52.082;5.426;2022-08-19T02:49:17;17.20;99.90
67890;DHT22;54685;52.082;5.426;2022-08-19T02:51:45;17.20;99.90
67890;DHT22;54685;52.082;5.426;2022-08-19T02:54:14;17.20;99.90
67890;DHT22;54685;52.082;5.426;2022-08-19T02:56:42;17.10;99.90
67890;DHT22;54685;52.082;5.426;2022-08-19T02:59:09;17.10;99.90
67890;DHT22;54685;52.082;5.426;2022-08-19T03:01:40;17.10;99.90
67890;DHT22;54685;52.082;5.426;2022-08-19T03:04:10;17.00;99.90
67890;DHT22;54685;52.082;5.426;2022-08-19T03:06:42;16.90;99.90
67890;DHT22;54685;52.082;5.426;2022-08-19T03:09:10;16.90;99.90
67890;DHT22;54685;52.082;5.426;2022-08-19T03:11:37;16.90;99.90
67890;DHT22;54685;52.082;5.426;2022-08-19T03:14:06;16.90;99.90
67890;DHT22;54685;52.082;5.426;2022-08-19T03:16:36;16.80;99.90
67890;DHT22;54685;52.082;5.426;2022-08-19T03:19:06;16.80;99.90
67890;DHT22;54685;52.082;5.426;2022-08-19T03:21:33;16.80;99.90
67890;DHT22;54685;52.082;5.426;2022-08-19T03:24:04;16.80;99.90
67890;DHT22;54685;52.082;5.426;2022-08-19T03:26:31;16.80;99.90
67890;DHT22;54685;52.082;5.426;2022-08-19T03:29:02;16.80;99.90
67890;DHT22;54685;52.082;5.426;2022-08-19T03:31:31;16.80;99.90
67890;DHT22;54685;52.082;5.426;2022-08-19T03:34:24;16.70;99.90
67890;DHT22;54685;52.082;5.426;2022-08-19T03:36:55;16.70;99.90
67890;DHT22;54685;52.082;5.426;2022-08-19T03:39:23;16.70;99.90
67890;DHT22;54685;52.082;5.426;2022-08-19T03:41:52;16.70;99.90
67890;DHT22;54685;52.082;5.426;2022-08-19T03:44:39;16.70;99.90
67890;DHT22;54685;52.082;5.426;2022-08-19T03:47:05;16.60;99.90
67890;DHT22;54685;52.082;5.426;2022-08-19T03:49:32;16.70;99.90
67890;DHT22;54685;52.082;5.426;2022-08-19T03:52:03;16.70;99.90
67890;DHT22;54685;52.082;5.426;2022-08-19T03:54:32;16.60;99.90
67890;DHT22;54685;52.082;5.426;2022-08-19T03:56:59;16.60;99.90
67890;DHT22;54685;52.082;5.426;2022-08-19T03:59:33;16.60;99.90
67890;DHT22;54685;52.082;5.426;2022-08-19T04:02:07;16.60;99.90
67890;DHT22;54685;52.082;5.426;2022-08-19T04:04:39;16.50;99.90
67890;DHT22;54685;52.082;5.426;2022-08-19T04:07:06;16.60;99.90
67890;DHT22;54685;52.082;5.426;2022-08-19T04:09:34;16.50;99.90
67890;DHT22;54685;52.082;5.426;2022-08-19T04:12:04;16.50;99.90
67890;DHT22;54685;52.082;5.426;2022-08-19T04:14:32;16.40;99.90
67890;DHT22;54685;52.082;5.426;2022-08-19T04:17:01;16.50;99.90
67890;DHT22;54685;52.082;5.426;2022-08-19T04:19:30;16.40;99.90
67890;DHT22;54685;52.082;5.426;2022-08-19T04:21:57;16.30;99.90
67890;DHT22;54685;52.082;5.426;2022-08-19T04:24:25;16.30;99.90
67890;DHT22;54685;52.082;5.426;2022-08-19T04:26:52;16.30;99.90
67890;DHT22;54685;52.082;5.426;2022-08-19T04:29:21;16.20;99.90
67890;DHT22;54685;52.082;5.426;2022-08-19T04:31:49;16.30;99.90
67890;DHT22;54685;52.082;5.426;2022-08-19T04:34:18;16.30;99.90
67890;DHT22;54685;52.082;5.426;2022-08-19T04:36:50;16.20;99.90
67890;DHT22;54685;52.082;5.426;2022-08-19T04:39:21;16.30;99.90
67890;DHT22;54685;52.082;5.426;2022-08-19T04:41:49;16.30;99.90
67890;DHT22;54685;52.082;5.426;2022-08-19T04:44:35;16.30;99.90
67890;DHT22;54685;52.082;5.426;2022-08-19T04:47:11;16.40;99.90
67890;DHT22;54685;52.082;5.426;2022-08-19T04:49:38;16.50;99.90
67890;DHT22;54685;52.082;5.426;2022-08-19T04:52:05;16.30;99.90
67890;DHT22;54685;52.082;5.426;2022-08-19T04:54:32;16.30;99.90
67890;DHT22;54685;52.082;5.426;2022-08-19T04:57:08;16.30;99.90
67890;DHT22;54685;52.082;5.426;2022-08-19T04:59:38;16.30;99.90
67890;DHT22;54685;52.082;5.426;2022-08-19T05:02:07;16.30;99.90
67890;DHT22;54685;52.082;5.426;2022-08-19T05:04:35;16.30;99.90
67890;DHT22;54685;52.082;5.426;2022-08-19T05:07:06;16.30;99.90
67890;DHT22;54685;52.082;5.426;2022-08-19T05:09:34;16.30;99.90
67890;DHT22;54685;52.082;5.426;2022-08-19T05:12:21;16.30;99.90
67890;DHT22;54685;52.082;5.426;2022-08-19T05:14:54;16.30;99.90
67890;DHT22;54685;52.082;5.426;2022-08-19T05:17:24;16.30;99.90
67890;DHT22;54685;52.082;5.426;2022-08-19T05:19:56;16.40;99.90
67890;DHT22;54685;52.082;5.426;2022-08-19T05:22:42;16.50;99.90
67890;DHT22;54685;52.082;5.426;2022-08-19T05:25:18;16.60;99.90
67890;DHT22;54685;52.082;5.426;2022-08-19T05:27:47;16.60;99.90
67890;DHT22;54685;52.082;5.426;2022-08-19T05:30:14;16.60;99.90
67890;DHT22;54685;52.082;5.426;2022-08-19T05:32:42;16.60;99.90
67890;DHT22;54685;52.082;5.426;2022-08-19T05:35:10;16.60;99.90
67890;DHT22;54685;52.082;5.426;2022-08-19T05:37:38;16.70;99.90
67890;DHT22;54685;52.082;5.426;2022-08-19T05:40:07;16.70;99.90
67890;DHT22;54685;52.082;5.426;2022-08-19T05:42:34;16.70;99.90
67890;DHT22;54685;52.082;5.426;2022-08-19T05:45:02;16.70;99.90
67890;DHT22;54685;52.082;5.426;2022-08-19T05:47:29;16.80;99.90
67890;DHT22;54685;52.082;5.426;2022-08-19T05:49:56;16.80;99.90
67890;DHT22;54685;52.082;5.426;2022-08-19T05:52:22;16.90;99.90
67890;DHT22;54685;52.082;5.426;2022-08-19T05:54:52;17.00;99.90
67890;DHT22;54685;52.082;5.426;2022-08-19T05:57:21;17.00;99.90
67890;DHT22;54685;52.082;5.426;2022-08-19T05:59:49;17.00;99.90
67890;DHT22;54685;52.082;5.426;2022-08-19T06:02:27;17.10;99.90
67890;DHT22;54685;52.082;5.426;2022-08-19T06:04:54;17.10;99.90
67890;DHT22;54685;52.082;5.426;2022-08-19T06:07:21;17.20;99.90
67890;DHT22;54685;52.082;5.426;2022-08-19T06:09:48;17.30;99.90
67890;DHT22;54685;52.082;5.426;2022-08-19T06:12:28;17.40;99.90
67890;DHT22;54685;52.082;5.426;2022-08-19T06:14:59;17.50;99.90
67890;DHT22;54685;52.082;5.426;2022-08-19T06:17:31;17.60;99.90
67890;DHT22;54685;52.082;5.426;2022-08-19T06:19:58;17.70;99.90
67890;DHT22;54685;52.082;5.426;2022-08-19T06:22:27;17.80;99.90
67890;DHT22;54685;52.082;5.426;2022-08-19T06:24:55;17.90;99.90
67890;DHT22;54685;52.082;5.426;2022-08-19T06:27:23;17.90;99.90
67890;DHT22;54685;52.082;5.426;2022-08-19T06:29:50;18.00;99.90
67890;DHT22;54685;52.082;5.426;2022-08-19T06:32:17;18.20;99.90
67890;DHT22;54685;52.082;5.426;2022-08-19T06:34:47;18.30;99.90
67890;DHT22;54685;52.082;5.426;2022-08-19T06:37:14;18.30;99.90
67890;DHT22;54685;52.082;5.426;2022-08-19T06:39:43;18.40;99.90
67890;DHT22;54685;52.082;5.426;2022-08-19T06:42:11;18.40;99.90
67890;DHT22;54685;52.082;5.426;2022-08-19T06:44:42;18.50;99.90
67890;DHT22;54685;52.082;5.426;2022-08-19T06:47:17;18.70;99.90
67890;DHT22;54685;52.082;5.426;2022-08-19T06:49:53;18.70;99.90
67890;DHT22;54685;52.082;5.426;2022-08-19T06:52:26;18.70;99.90
67890;DHT22;54685;52.082;5.426;2022-08-19T06:54:54;18.80;99.90
67890;DHT22;54685;52.082;5.426;2022-08-19T06:57:26;18.70;99.90
67890;DHT22;54685;52.082;5.426;2022-08-19T06:59:53;18.80;99.90
67890;DHT22;54685;52.082;5.426;2022-08-19T07:02:21;18.80;99.90
67890;DHT22;54685;52.082;5.426;2022-08-19T07:04:47;18.80;99.90
67890;DHT22;54685;52.082;5.426;2022-08-19T07:07:19;18.80;99.90
67890;DHT22;54685;52.082;5.426;2022-08-19T07:09:48;18.70;99.90
67890;DHT22;54685;52.082;5.426;2022-08-19T07:12:28;18.70;99.90
67890;DHT22;54685;52.082;5.426;2022-08-19T07:14:56;18.80;99.90
67890;DHT22;54685;52.082;5.426;2022-08-19T07:17:24;18.80;99.90
67890;DHT22;54685;52.082;5.426;2022-08-19T07:19:51;18.80;99.90
67890;DHT22;54685;52.082;5.426;2022-08-19T07:22:20;18.80;99.90
67890;DHT22;54685;52.082;5.426;2022-08-19T07:24:51;18.90;99.90
67890;DHT22;54685;52.082;5.426;2022-08-19T07:27:20;18.90;99.90
67890;DHT22;54685;52.082;5.426;2022-08-19T07:29:54;19.00;99.90
67890;DHT22;54685;52.082;5.426;2022-08-19T07:32:25;19.00;99.90
67890;DHT22;54685;52.082;5.426;2022-08-19T07:34:53;19.10;99.90
67890;DHT22;54685;52.082;5.426;2022-08-19T07:37:22;19.20;99.90
67890;DHT22;54685;52.082;5.426;2022-08-19T07:39:49;19.30;99.90
67890;DHT22;54685;52.082;5.426;2022-08-19T07:42:16;19.30;99.90
67890;DHT22;54685;52.082;5.426;2022-08-19T07:44:44;19.30;99.90
67890;DHT22;54685;52.082;5.426;2022-08-19T07:47:16;19.30;99.90
67890;DHT22;54685;52.082;5.426;2022-08-19T07:50:06;19.40;99.90
67890;DHT22;54685;52.082;5.426;2022-08-19T07:52:34;19.50;99.90
67890;DHT22;54685;52.082;5.426;2022-08-19T07:55:03;19.60;99.90
67890;DHT22;54685;52.082;5.426;2022-08-19T07:57:30;19.70;99.90
67890;DHT22;54685;52.082;5.426;2022-08-19T07:59:57;19.70;99.90
67890;DHT22;54685;52.082;5.426;2022-08-19T08:02:24;19.80;99.90
67890;DHT22;54685;52.082;5.426;2022-08-19T08:04:50;19.70;99.90
67890;DHT22;54685;52.082;5.426;2022-08-19T08:07:35;19.60;99.90
67890;DHT22;54685;52.082;5.426;2022-08-19T08:10:21;19.70;99.90
67890;DHT22;54685;52.082;5.426;2022-08-19T08:12:50;19.80;99.90
67890;DHT22;54685;52.082;5.426;2022-08-19T08:15:37;19.80;99.90
67890;DHT22;54685;52.082;5.426;2022-08-19T08:18:09;19.90;99.90
67890;DHT22;54685;52.082;5.426;2022-08-19T08:20:37;19.90;99.90
67890;DHT22;54685;52.082;5.426;2022-08-19T08:23:04;20.00;99.90
67890;DHT22;54685;52.082;5.426;2022-08-19T08:25:50;20.00;99.90
67890;DHT22;54685;52.082;5.426;2022-08-19T08:28:17;20.00;99.90
67890;DHT22;54685;52.082;5.426;2022-08-19T08:30:46;20.10;99.90
67890;DHT22;54685;52.082;5.426;2022-08-19T08:33:21;20.10;99.90
67890;DHT22;54685;52.082;5.426;2022-08-19T08:36:07;20.20;99.90
67890;DHT22;54685;52.082;5.426;2022-08-19T08:38:35;20.30;99.90
67890;DHT22;54685;52.082;5.426;2022-08-19T08:43:48;20.60;99.90
67890;DHT22;54685;52.082;5.426;2022-08-19T08:46:39;20.70;99.90
67890;DHT22;54685;52.082;5.426;2022-08-19T08:51:51;20.70;99.90
67890;DHT22;54685;52.082;5.426;2022-08-19T08:54:41;20.60;99.90
67890;DHT22;54685;52.082;5.426;2022-08-19T08:57:51;20.70;99.90
67890;DHT22;54685;52.082;5.426;2022-08-19T09:00:31;20.70;99.90
67890;DHT22;54685;52.082;5.426;2022-08-19T09:02:59;20.90;99.90
67890;DHT22;54685;52.082;5.426;2022-08-19T09:05:55;20.90;99.90
67890;DHT22;54685;52.082;5.426;2022-08-19T09:08:35;21.00;99.90
67890;DHT22;54685;52.082;5.426;2022-08-19T09:11:10;21.30;99.90
67890;DHT22;54685;52.082;5.426;2022-08-19T09:17:16;21.80;99.90
67890;DHT22;54685;52.082;5.426;2022-08-19T09:19:57;22.20;99.90
67890;DHT22;54685;52.082;5.426;2022-08-19T09:22:27;22.40;99.90
67890;DHT22;54685;52.082;5.426;2022-08-19T09:24:54;22.80;99.90
67890;DHT22;54685;52.082;5.426;2022-08-19T09:27:23;23.10;99.90
67890;DHT22;54685;52.082;5.426;2022-08-19T09:30:13;23.30;99.90
67890;DHT22;54685;52.082;5.426;2022-08-19T09:32:41;23.50;99.90
67890;DHT22;54685;52.082;5.426;2022-08-19T09:35:09;23.60;99.90
67890;DHT22;54685;52.082;5.426;2022-08-19T09:37:37;23.50;99.90
67890;DHT22;54685;52.082;5.426;2022-08-19T09:40:06;23.30;99.90
67890;DHT22;54685;52.082;5.426;2022-08-19T09:42:37;23.40;99.90
67890;DHT22;54685;52.082;5.426;2022-08-19T09:45:17;23.60;99.90
67890;DHT22;54685;52.082;5.426;2022-08-19T09:47:50;23.60;99.90
67890;DHT22;54685;52.082;5.426;2022-08-19T09:50:20;23.70;99.90
67890;DHT22;54685;52.082;5.426;2022-08-19T09:52:47;23.60;99.90
67890;DHT22;54685;52.082;5.426;2022-08-19T09:55:21;23.50;99.90
67890;DHT22;54685;52.082;5.426;2022-08-19T09:57:59;23.40;99.90
67890;DHT22;54685;52.082;5.426;2022-08-19T10:00:27;23.50;99.90
67890;DHT22;54685;52.082;5.426;2022-08-19T10:02:53;23.40;99.90
67890;DHT22;54685;52.082;5.426;2022-08-19T10:05:20;23.40;99.90
67890;DHT22;54685;52.082;5.426;2022-08-19T10:08:09;23.40;99.90
67890;DHT22;54685;52.082;5.426;2022-08-19T10:10:40;23.30;99.90
67890;DHT22;54685;52.082;5.426;2022-08-19T10:13:14;23.30;99.90
67890;DHT22;54685;52.082;5.426;2022-08-19T10:15:41;23.60;99.90
67890;DHT22;54685;52.082;5.426;2022-08-19T10:18:14;23.90;99.90
67890;DHT22;54685;52.082;5.426;2022-08-19T10:20:43;24.20;99.90
67890;DHT22;54685;52.082;5.426;2022-08-19T10:23:18;24.30;99.90
67890;DHT22;54685;52.082;5.426;2022-08-19T10:25:46;24.40;99.90
67890;DHT22;54685;52.082;5.426;2022-08-19T10:28:14;24.70;99.90
67890;DHT22;54685;52.082;5.426;2022-08-19T10:30:41;24.70;99.90
67890;DHT22;54685;52.082;5.426;2022-08-19T10:33:09;24.70;99.90
67890;DHT22;54685;52.082;5.426;2022-08-19T10:35:37;24.60;99.90
67890;DHT22;54685;52.082;5.426;2022-08-19T10:38:22;24.30;99.90
67890;DHT22;54685;52.082;5.426;2022-08-19T10:40:58;24.30;99.90
67890;DHT22;54685;52.082;5.426;2022-08-19T10:43:25;24.50;99.90
67890;DHT22;54685;52.082;5.426;2022-08-19T10:45:53;24.50;99.90
67890;DHT22;54685;52.082;5.426;2022-08-19T10:48:24;24.70;99.90
67890;DHT22;54685;52.082;5.426;2022-08-19T10:50:52;25.00;99.90
67890;DHT22;54685;52.082;5.426;2022-08-19T10:53:49;25.40;99.90
67890;DHT22;54685;52.082;5.426;2022-08-19T10:56:17;25.80;99.90
67890;DHT22;54685;52.082;5.426;2022-08-19T10:59:03;26.10;99.90
67890;DHT22;54685;52.082;5.426;2022-08-19T11:01:31;26.20;99.90
67890;DHT22;54685;52.082;5.426;2022-08-19T11:04:04;26.10;99.90
67890;DHT22;54685;52.082;5.426;2022-08-19T11:06:32;26.00;99.90
67890;DHT22;54685;52.082;5.426;2022-08-19T11:08:58;25.80;99.90
67890;DHT22;54685;52.082;5.426;2022-08-19T11:11:27;25.60;99.90
67890;DHT22;54685;52.082;5.426;2022-08-19T11:13:55;25.70;99.90
67890;DHT22;54685;52.082;5.426;2022-08-19T11:16:24;25.90;99.90
67890;DHT22;54685;52.082;5.426;2022-08-19T11:18:54;25.80;99.90
67890;DHT22;54685;52.082;5.426;2022-08-19T11:21:33;25.40;99.90
67890;DHT22;54685;52.082;5.426;2022-08-19T11:24:10;25.40;99.90
67890;DHT22;54685;52.082;5.426;2022-08-19T11:26:39;25.30;99.90
67890;DHT22;54685;52.082;5.426;2022-08-19T11:29:07;25.60;99.90
67890;DHT22;54685;52.082;5.426;2022-08-19T11:31:39;25.60;99.90
67890;DHT22;54685;52.082;5.426;2022-08-19T11:34:12;25.60;99.90
67890;DHT22;54685;52.082;5.426;2022-08-19T11:36:42;25.50;99.90
67890;DHT22;54685;52.082;5.426;2022-08-19T11:39:10;25.60;99.90
67890;DHT22;54685;52.082;5.426;2022-08-19T11:41:37;25.80;99.90
67890;DHT22;54685;52.082;5.426;2022-08-19T11:44:05;26.00;99.90
67890;DHT22;54685;52.082;5.426;2022-08-19T11:46:35;26.00;99.90
67890;DHT22;54685;52.082;5.426;2022-08-19T11:49:04;25.90;99.90
67890;DHT22;54685;52.082;5.426;2022-08-19T11:51:36;25.70;99.90
67890;DHT22;54685;52.082;5.426;2022-08-19T11:54:04;25.70;99.90
67890;DHT22;54685;52.082;5.426;2022-08-19T11:56:32;25.60;99.90
67890;DHT22;54685;52.082;5.426;2022-08-19T11:59:01;25.70;99.90
67890;DHT22;54685;52.082;5.426;2022-08-19T12:01:28;25.90;99.90
67890;DHT22;54685;52.082;5.426;2022-08-19T12:03:56;25.80;99.90
67890;DHT22;54685;52.082;5.426;2022-08-19T12:06:29;25.80;99.90
67890;DHT22;54685;52.082;5.426;2022-08-19T12:08:58;25.70;99.90
67890;DHT22;54685;52.082;5.426;2022-08-19T12:11:26;25.50;99.90
67890;DHT22;54685;52.082;5.426;2022-08-19T12:13:56;25.60;99.90
67890;DHT22;54685;52.082;5.426;2022-08-19T12:16:26;25.60;99.90
67890;DHT22;54685;52.082;5.426;2022-08-19T12:18:54;25.50;99.90
67890;DHT22;54685;52.082;5.426;2022-08-19T12:21:25;25.60;99.90
67890;DHT22;54685;52.082;5.426;2022-08-19T12:23:56;25.30;99.90
67890;DHT22;54685;52.082;5.426;2022-08-19T12:26:25;25.20;99.90
67890;DHT22;54685;52.082;5.426;2022-08-19T12:28:52;25.10;99.90
67890;DHT22;54685;52.082;5.426;2022-08-19T12:31:19;25.00;99.90
67890;DHT22;54685;52.082;5.426;2022-08-19T12:33:46;25.00;99.90
67890;DHT22;54685;52.082;5.426;2022-08-19T12:36:15;25.00;99.90
67890;DHT22;54685;52.082;5.426;2022-08-19T12:38:42;24.90;99.90
67890;DHT22;54685;52.082;5.426;2022-08-19T12:41:14;24.90;99.90
67890;DHT22;54685;52.082;5.426;2022-08-19T12:43:41;24.90;99.90
67890;DHT22;54685;52.082;5.426;2022-08-19T12:46:10;24.90;99.90
67890;DHT22;54685;52.082;5.426;2022-08-19T12:48:38;24.90;99.90
67890;DHT22;54685;52.082;5.426;2022-08-19T12:51:13;24.90;99.90
67890;DHT22;54685;52.082;5.426;2022-08-19T12:53:44;24.80;99.90
67890;DHT22;54685;52.082;5.426;2022-08-19T12:56:12;24.90;99.90
67890;DHT22;54685;52.082;5.426;2022-08-19T12:58:41;24.90;99.90
67890;DHT22;54685;52.082;5.426;2022-08-19T13:01:16;25.00;99.90
67890;DHT22;54685;52.082;5.426;2022-08-19T13:03:48;25.20;99.90
67890;DHT22;54685;52.082;5.426;2022-08-19T13:06:16;25.50;99.90
67890;DHT22;54685;52.082;5.426;2022-08-19T13:08:45;25.60;99.90
67890;DHT22;54685;52.082;5.426;2022-08-19T13:11:15;25.70;99.90
67890;DHT22;54685;52.082;5.426;2022-08-19T13:13:46;25.50;99.90
67890;DHT22;54685;52.082;5.426;2022-08-19T13:16:16;25.50;99.90
67890;DHT22;54685;52.082;5.426;2022-08-19T13:18:45;25.30;99.90
67890;DHT22;54685;52.082;5.426;2022-08-19T13:21:14;25.30;99.90
67890;DHT22;54685;52.082;5.426;2022-08-19T13:23:41;25.40;99.90
67890;DHT22;54685;52.082;5.426;2022-08-19T13:26:10;25.70;99.90
67890;DHT22;54685;52.082;5.426;2022-08-19T13:28:38;25.80;99.90
67890;DHT22;54685;52.082;5.426;2022-08-19T13:31:25;25.70;99.90
67890;DHT22;54685;52.082;5.426;2022-08-19T13:34:11;25.60;99.90
67890;DHT22;54685;52.082;5.426;2022-08-19T13:36:38;25.40;99.90
67890;DHT22;54685;52.082;5.426;2022-08-19T13:39:06;25.30;99.90
67890;DHT22;54685;52.082;5.426;2022-08-19T13:41:37;25.10;99.90
67890;DHT22;54685;52.082;5.426;2022-08-19T13:44:04;24.80;99.90
67890;DHT22;54685;52.082;5.426;2022-08-19T13:46:33;24.70;99.90
67890;DHT22;54685;52.082;5.426;2022-08-19T13:48:59;24.60;99.90
67890;DHT22;54685;52.082;5.426;2022-08-19T13:51:26;24.50;99.90
67890;DHT22;54685;52.082;5.426;2022-08-19T13:53:53;24.50;99.90
67890;DHT22;54685;52.082;5.426;2022-08-19T13:56:22;24.20;99.90
67890;DHT22;54685;52.082;5.426;2022-08-19T13:58:58;23.90;99.90
67890;DHT22;54685;52.082;5.426;2022-08-19T14:01:25;23.60;99.90
67890;DHT22;54685;52.082;5.426;2022-08-19T14:03:53;23.30;99.90
67890;DHT22;54685;52.082;5.426;2022-08-19T14:06:20;23.00;99.90
67890;DHT22;54685;52.082;5.426;2022-08-19T14:08:57;22.80;99.90
67890;DHT22;54685;52.082;5.426;2022-08-19T14:11:25;22.70;99.90
67890;DHT22;54685;52.082;5.426;2022-08-19T14:13:53;22.60;99.90
67890;DHT22;54685;52.082;5.426;2022-08-19T14:16:20;22.60;99.90
67890;DHT22;54685;52.082;5.426;2022-08-19T14:18:48;22.70;99.90
67890;DHT22;54685;52.082;5.426;2022-08-19T14:21:17;22.60;99.90
67890;DHT22;54685;52.082;5.426;2022-08-19T14:23:44;22.60;99.90
67890;DHT22;54685;52.082;5.426;2022-08-19T14:26:37;22.60;99.90
67890;DHT22;54685;52.082;5.426;2022-08-19T14:29:07;22.50;99.90
67890;DHT22;54685;52.082;5.426;2022-08-19T14:31:44;22.40;99.90
67890;DHT22;54685;52.082;5.426;2022-08-19T14:34:10;22.30;99.90
67890;DHT22;54685;52.082;5.426;2022-08-19T14:36:39;22.20;99.90
67890;DHT22;54685;52.082;5.426;2022-08-19T14:39:11;22.10;99.90
67890;DHT22;54685;52.082;5.426;2022-08-19T14:41:40;22.10;99.90
67890;DHT22;54685;52.082;5.426;2022-08-19T14:44:08;22.10;99.90
67890;DHT22;54685;52.082;5.426;2022-08-19T14:46:39;22.10;99.90
67890;DHT22;54685;52.082;5.426;2022-08-19T14:49:15;22.00;99.90
67890;DHT22;54685;52.082;5.426;2022-08-19T14:51:42;22.00;99.90
67890;DHT22;54685;52.082;5.426;2022-08-19T14:54:08;22.00;99.90
67890;DHT22;54685;52.082;5.426;2022-08-19T14:56:35;22.10;99.90
67890;DHT22;54685;52.082;5.426;2022-08-19T14:59:02;22.20;99.90
67890;DHT22;54685;52.082;5.426;2022-08-19T15:01:32;22.30;99.90
67890;DHT22;54685;52.082;5.426;2022-08-19T15:03:59;22.20;99.90
67890;DHT22;54685;52.082;5.426;2022-08-19T15:06:26;22.30;99.90
67890;DHT22;54685;52.082;5.426;2022-08-19T15:08:54;22.20;99.90
67890;DHT22;54685;52.082;5.426;2022-08-19T15:11:23;22.30;99.90
67890;DHT22;54685;52.082;5.426;2022-08-19T15:13:51;22.40;99.90
67890;DHT22;54685;52.082;5.426;2022-08-19T15:16:18;22.40;99.90
67890;DHT22;54685;52.082;5.426;2022-08-19T15:18:46;22.40;99.90
67890;DHT22;54685;52.082;5.426;2022-08-19T15:21:16;22.30;99.90
67890;DHT22;54685;52.082;5.426;2022-08-19T15:23:55;22.40;99.90
67890;DHT22;54685;52.082;5.426;2022-08-19T15:26:24;22.40;99.90
67890;DHT22;54685;52.082;5.426;2022-08-19T15:28:55;22.50;99.90
67890;DHT22;54685;52.082;5.426;2022-08-19T15:31:27;22.80;99.90
67890;DHT22;54685;52.082;5.426;2022-08-19T15:34:06;22.90;99.90
67890;DHT22;54685;52.082;5.426;2022-08-19T15:36:36;23.20;99.90
67890;DHT22;54685;52.082;5.426;2022-08-19T15:39:08;23.20;99.90
67890;DHT22;54685;52.082;5.426;2022-08-19T15:41:36;23.20;99.90
67890;DHT22;54685;52.082;5.426;2022-08-19T15:44:09;23.10;99.90
67890;DHT22;54685;52.082;5.426;2022-08-19T15:46:38;23.20;99.90
67890;DHT22;54685;52.082;5.426;2022-08-19T15:49:06;23.30;99.90
67890;DHT22;54685;52.082;5.426;2022-08-19T15:51:34;23.30;99.90
67890;DHT22;54685;52.082;5.426;2022-08-19T15:54:04;23.40;99.90
67890;DHT22;54685;52.082;5.426;2022-08-19T15:56:31;23.30;99.90
67890;DHT22;54685;52.082;5.426;2022-08-19T15:59:24;23.20;99.90
67890;DHT22;54685;52.082;5.426;2022-08-19T16:02:14;23.30;99.90